Time;durP1;ratioP1;P1;durP2;ratioP2;P2;SDS_P1;SDS_P2;PMS_P1;PMS_P2;Temp;Humidity;BMP_temperature;BMP_pressure;BME280_temperature;BME280_humidity;BME280_pressure;Samples;Min_cycle;Max_cycle;Signal;HPM_P1;HPM_P2
2022/07/24 00:01:35;;;;;;;20.83;19.43;;;24.90;25.50;;;;;;6212889;23;20387;-68
2022/07/24 00:04:02;;;;;;;19.83;18.60;;;24.50;26.10;;;;;;6216179;23;20410;-69
2022/07/24 00:06:28;;;;;;;20.73;19.53;;;24.30;26.80;;;;;;6214926;23;20148;-69
2022/07/24 00:08:54;;;;;;;19.93;18.77;;;24.30;27.10;;;;;;6214671;23;20849;-68
2022/07/24 00:11:20;;;;;;;19.57;18.50;;;24.20;27.60;;;;;;6214813;23;20572;-68
2022/07/24 00:13:45;;;;;;;21.13;19.97;;;24.20;27.60;;;;;;6214648;23;20618;-68
2022/07/24 00:16:11;;;;;;;22.60;21.40;;;24.10;28.00;;;;;;6214613;23;20383;-69
2022/07/24 00:18:37;;;;;;;21.77;20.67;;;24.00;28.10;;;;;;6214751;23;20254;-68
2022/07/24 00:21:03;;;;;;;20.83;19.73;;;23.90;28.40;;;;;;6214863;23;20163;-68
2022/07/24 00:23:29;;;;;;;21.60;20.60;;;23.90;28.50;;;;;;6214762;23;20227;-69
2022/07/24 00:25:55;;;;;;;22.83;21.50;;;23.90;28.30;;;;;;6214757;23;20387;-68
2022/07/24 00:28:21;;;;;;;21.13;19.93;;;24.10;27.90;;;;;;6215169;23;20152;-69
2022/07/24 00:30:47;;;;;;;20.20;19.00;;;24.20;27.50;;;;;;6214764;23;20414;-69
2022/07/24 00:33:13;;;;;;;21.27;20.07;;;24.40;27.00;;;;;;6215077;23;20239;-68
2022/07/24 00:35:38;;;;;;;23.13;21.80;;;24.50;26.70;;;;;;6214891;23;20715;-69
2022/07/24 00:38:04;;;;;;;20.60;19.50;;;24.60;26.50;;;;;;6215234;23;20383;-68
2022/07/24 00:40:30;;;;;;;22.50;21.30;;;24.60;26.20;;;;;;6214626;23;20156;-68
2022/07/24 00:42:57;;;;;;;20.13;19.03;;;24.70;26.00;;;;;;6214748;23;20184;-68
2022/07/24 00:45:24;;;;;;;19.83;18.87;;;24.70;25.80;;;;;;6215265;23;20379;-69
2022/07/24 00:47:50;;;;;;;20.07;19.07;;;24.80;25.40;;;;;;6214821;23;20434;-68
2022/07/24 00:50:16;;;;;;;21.43;20.17;;;24.60;26.00;;;;;;6214824;23;20705;-68
2022/07/24 00:52:43;;;;;;;22.67;21.47;;;24.60;25.90;;;;;;6214712;23;20415;-69
2022/07/24 00:55:10;;;;;;;20.60;19.50;;;24.60;26.10;;;;;;6214716;23;20379;-69
2022/07/24 00:57:36;;;;;;;20.43;19.23;;;24.60;26.10;;;;;;6214402;23;20825;-68
2022/07/24 01:00:08;;;;;;;21.83;20.17;;;24.60;26.00;;;;;;6214047;23;20855;-69
2022/07/24 01:02:34;;;;;;;22.57;21.03;;;24.70;26.10;;;;;;6215029;23;20422;-69
2022/07/24 01:05:00;;;;;;;22.10;21.00;;;24.60;26.20;;;;;;6216369;23;20678;-68
2022/07/24 01:07:26;;;;;;;20.90;19.80;;;24.60;26.30;;;;;;6214952;23;20379;-69
2022/07/24 01:09:52;;;;;;;21.33;20.20;;;24.60;26.80;;;;;;6216097;23;20148;-69
2022/07/24 01:12:18;;;;;;;22.93;21.73;;;24.60;26.80;;;;;;6214841;23;20581;-68
2022/07/24 01:14:44;;;;;;;22.97;21.47;;;24.60;26.80;;;;;;6214208;23;20464;-69
2022/07/24 01:17:10;;;;;;;21.70;20.60;;;24.60;27.00;;;;;;6214584;23;20222;-69
2022/07/24 01:19:36;;;;;;;21.47;20.27;;;24.60;27.20;;;;;;6214563;23;20376;-69
2022/07/24 01:22:02;;;;;;;21.60;20.40;;;24.60;27.20;;;;;;6214415;23;20759;-68
2022/07/24 01:24:28;;;;;;;21.10;20.00;;;24.60;26.80;;;;;;6214274;23;20176;-68
2022/07/24 01:26:54;;;;;;;21.63;20.37;;;24.50;27.10;;;;;;6214559;23;20380;-68
2022/07/24 01:29:20;;;;;;;21.93;20.40;;;24.50;27.30;;;;;;6214606;23;20379;-69
2022/07/24 01:31:45;;;;;;;20.73;19.53;;;24.60;27.10;;;;;;6214260;23;20155;-69
2022/07/24 01:34:12;;;;;;;21.83;20.63;;;24.60;27.10;;;;;;6214337;23;20608;-69
2022/07/24 01:36:37;;;;;;;22.07;20.77;;;24.60;27.10;;;;;;6214213;23;20589;-69
2022/07/24 01:39:03;;;;;;;22.90;21.80;;;24.70;27.40;;;;;;6214323;23;20387;-68
2022/07/24 01:41:32;;;;;;;23.13;21.83;;;24.60;27.30;;;;;;6215759;23;20152;-68
2022/07/24 01:43:58;;;;;;;23.63;22.17;;;24.60;27.80;;;;;;6215931;23;20168;-69
2022/07/24 01:46:23;;;;;;;23.07;21.67;;;24.50;28.20;;;;;;6214106;23;20430;-68
2022/07/24 01:48:50;;;;;;;23.20;21.90;;;24.50;28.70;;;;;;6214204;23;20152;-68
2022/07/24 01:51:15;;;;;;;25.50;23.90;;;24.50;28.50;;;;;;6215751;23;20148;-69
2022/07/24 01:53:41;;;;;;;23.23;21.63;;;24.40;28.80;;;;;;6213961;23;20398;-69
2022/07/24 01:56:07;;;;;;;24.40;22.97;;;24.40;28.80;;;;;;6214657;23;20156;-69
2022/07/24 01:58:33;;;;;;;24.80;22.93;;;24.50;28.90;;;;;;6214213;23;20383;-68
2022/07/24 02:00:58;;;;;;;22.30;20.80;;;24.50;28.90;;;;;;6213863;23;20156;-68
2022/07/24 02:03:24;;;;;;;23.43;22.13;;;24.40;28.80;;;;;;6214398;23;20545;-69
2022/07/24 02:05:50;;;;;;;21.60;20.20;;;24.50;28.40;;;;;;6214107;23;20152;-69
2022/07/24 02:08:16;;;;;;;23.20;21.80;;;24.40;28.50;;;;;;6215743;23;20427;-69
2022/07/24 02:10:41;;;;;;;23.93;22.63;;;24.30;29.60;;;;;;6215697;23;20155;-69
2022/07/24 02:13:07;;;;;;;24.30;22.77;;;24.30;29.80;;;;;;6214407;23;20584;-68
2022/07/24 02:15:34;;;;;;;23.27;21.90;;;24.30;29.90;;;;;;6213702;23;20513;-68
2022/07/24 02:18:01;;;;;;;23.60;22.10;;;24.30;29.50;;;;;;6213920;23;20163;-68
2022/07/24 02:20:27;;;;;;;24.00;22.60;;;23.80;30.00;;;;;;6215102;23;20444;-68
2022/07/24 02:22:53;;;;;;;25.43;24.03;;;23.70;30.80;;;;;;6214338;23;20426;-68
2022/07/24 02:25:19;;;;;;;24.90;23.37;;;23.50;31.40;;;;;;6215586;23;20458;-68
2022/07/24 02:27:45;;;;;;;24.17;22.77;;;23.70;31.70;;;;;;6214279;23;20155;-68
2022/07/24 02:30:16;;;;;;;27.37;25.87;;;23.70;31.20;;;;;;6213545;23;20379;-68
2022/07/24 02:32:42;;;;;;;26.63;25.23;;;23.90;31.60;;;;;;6213793;23;20152;-68
2022/07/24 02:35:08;;;;;;;25.23;23.70;;;23.90;32.20;;;;;;6214322;23;20383;-68
2022/07/24 02:37:42;;;;;;;26.90;25.20;;;24.00;31.80;;;;;;6213879;23;20429;-68
2022/07/24 02:40:09;;;;;;;27.87;26.30;;;24.00;32.20;;;;;;6213715;23;20425;-69
2022/07/24 02:42:36;;;;;;;25.97;24.37;;;24.00;31.70;;;;;;6213736;23;20415;-68
2022/07/24 02:45:03;;;;;;;25.37;23.77;;;24.10;30.90;;;;;;6213683;23;20382;-68
2022/07/24 02:47:29;;;;;;;25.60;24.20;;;24.20;30.20;;;;;;6213651;23;20375;-68
2022/07/24 02:49:55;;;;;;;24.53;22.93;;;24.20;29.80;;;;;;6215083;23;20462;-68
2022/07/24 02:52:20;;;;;;;25.10;23.80;;;24.20;29.20;;;;;;6213753;23;20152;-68
2022/07/24 02:54:46;;;;;;;21.93;20.63;;;24.10;29.30;;;;;;6213615;23;20176;-68
2022/07/24 02:57:12;;;;;;;24.30;22.90;;;24.10;29.20;;;;;;6215284;23;20155;-68
2022/07/24 02:59:38;;;;;;;24.50;23.10;;;24.10;29.40;;;;;;6213607;23;20156;-69
2022/07/24 03:02:03;;;;;;;24.77;23.43;;;24.10;29.40;;;;;;6213314;23;20231;-68
2022/07/24 03:04:29;;;;;;;24.37;23.00;;;24.10;29.60;;;;;;6213419;23;20422;-68
2022/07/24 03:06:55;;;;;;;26.27;24.87;;;24.10;29.90;;;;;;6213596;23;20159;-68
2022/07/24 03:09:21;;;;;;;24.30;22.70;;;24.00;30.20;;;;;;6213700;23;20156;-68
2022/07/24 03:11:46;;;;;;;23.67;22.07;;;24.00;30.40;;;;;;6213485;23;20828;-68
2022/07/24 03:14:12;;;;;;;24.67;22.97;;;24.00;30.50;;;;;;6213545;23;20176;-68
2022/07/24 03:16:38;;;;;;;24.43;23.10;;;23.90;30.00;;;;;;6213428;23;20483;-68
2022/07/24 03:19:03;;;;;;;24.13;22.93;;;23.50;30.60;;;;;;6215238;23;20144;-68
2022/07/24 03:21:29;;;;;;;24.67;23.23;;;23.30;30.70;;;;;;6213201;23;20183;-69
2022/07/24 03:23:55;;;;;;;23.90;22.60;;;23.20;31.10;;;;;;6213481;23;20179;-68
2022/07/24 03:26:21;;;;;;;24.37;22.77;;;23.50;30.90;;;;;;6213808;23;20198;-68
2022/07/24 03:28:46;;;;;;;23.63;22.27;;;23.70;30.50;;;;;;6214944;23;20219;-68
2022/07/24 03:31:12;;;;;;;26.80;25.17;;;23.70;30.30;;;;;;6213619;23;20158;-68
2022/07/24 03:33:38;;;;;;;25.90;24.30;;;23.80;30.90;;;;;;6215088;23;20191;-69
2022/07/24 03:36:04;;;;;;;24.83;23.33;;;23.80;31.60;;;;;;6213413;23;20214;-68
2022/07/24 03:38:29;;;;;;;23.00;21.57;;;23.70;32.50;;;;;;6215072;23;20234;-69
2022/07/24 03:40:55;;;;;;;23.63;22.20;;;23.60;32.20;;;;;;6215692;23;20382;-68
2022/07/24 03:43:21;;;;;;;24.57;23.10;;;23.60;32.70;;;;;;6216900;23;20184;-69
2022/07/24 03:45:46;;;;;;;27.73;25.93;;;23.60;32.40;;;;;;6216878;23;20151;-68
2022/07/24 03:48:12;;;;;;;22.70;21.30;;;23.70;31.90;;;;;;6215192;23;20159;-68
2022/07/24 03:50:38;;;;;;;26.73;25.23;;;23.60;32.10;;;;;;6215051;23;20190;-68
2022/07/24 03:53:03;;;;;;;26.70;25.17;;;23.70;32.00;;;;;;6215619;23;20229;-68
2022/07/24 03:55:29;;;;;;;23.83;22.47;;;23.70;31.90;;;;;;6215192;23;20182;-68
2022/07/24 03:57:55;;;;;;;23.83;22.33;;;23.60;32.40;;;;;;6215030;23;20286;-69
2022/07/24 04:00:20;;;;;;;25.17;23.47;;;23.60;32.20;;;;;;6214928;23;20164;-68
2022/07/24 04:02:46;;;;;;;27.73;26.27;;;23.60;32.30;;;;;;6215462;23;20254;-68
2022/07/24 04:05:13;;;;;;;24.67;23.10;;;23.60;32.70;;;;;;6216991;23;20144;-68
2022/07/24 04:07:39;;;;;;;26.40;24.60;;;23.60;32.00;;;;;;6215144;23;20175;-68
2022/07/24 04:10:07;;;;;;;27.30;25.90;;;23.60;33.00;;;;;;6214881;23;20470;-68
2022/07/24 04:12:33;;;;;;;26.70;25.30;;;23.60;32.70;;;;;;6215058;23;20376;-68
2022/07/24 04:14:58;;;;;;;27.57;26.13;;;23.70;32.50;;;;;;6215165;23;20406;-68
2022/07/24 04:17:24;;;;;;;24.60;23.20;;;23.70;32.30;;;;;;6217224;23;20375;-68
2022/07/24 04:19:50;;;;;;;25.20;23.70;;;23.70;32.20;;;;;;6214885;23;20459;-68
2022/07/24 04:22:16;;;;;;;27.30;25.80;;;23.50;32.30;;;;;;6214817;23;20159;-68
2022/07/24 04:24:42;;;;;;;25.03;23.43;;;23.50;32.90;;;;;;6214870;23;20391;-68
2022/07/24 04:27:07;;;;;;;25.00;23.63;;;23.60;32.00;;;;;;6214587;23;20498;-68
2022/07/24 04:29:33;;;;;;;25.83;24.00;;;23.70;32.30;;;;;;6216220;23;20209;-68
2022/07/24 04:31:59;;;;;;;24.50;22.90;;;23.70;32.40;;;;;;6214343;23;20632;-68
2022/07/24 04:34:25;;;;;;;25.17;23.67;;;23.60;32.10;;;;;;6214373;23;20235;-68
2022/07/24 04:36:50;;;;;;;24.37;22.90;;;23.60;32.30;;;;;;6215980;23;20148;-68
2022/07/24 04:39:16;;;;;;;24.87;23.37;;;23.60;32.30;;;;;;6215939;23;20159;-68
2022/07/24 04:41:42;;;;;;;23.53;22.17;;;23.50;33.00;;;;;;6214213;23;20202;-68
2022/07/24 04:44:07;;;;;;;24.87;23.57;;;23.50;32.50;;;;;;6214531;23;20180;-68
2022/07/24 04:46:33;;;;;;;26.00;24.60;;;23.50;32.20;;;;;;6214315;23;20479;-68
2022/07/24 04:49:00;;;;;;;24.50;23.20;;;23.50;32.00;;;;;;6213559;23;20152;-68
2022/07/24 04:51:25;;;;;;;26.13;24.73;;;23.50;31.60;;;;;;6214706;23;20156;-69
2022/07/24 04:53:52;;;;;;;24.53;23.10;;;23.50;31.50;;;;;;6214580;23;20718;-69
2022/07/24 04:56:21;;;;;;;26.47;25.07;;;23.50;32.10;;;;;;6214696;23;20163;-70
2022/07/24 04:58:47;;;;;;;24.50;23.17;;;23.60;31.50;;;;;;6214909;23;20699;-68
2022/07/24 05:01:14;;;;;;;25.50;24.20;;;23.50;31.70;;;;;;6214570;23;20382;-69
2022/07/24 05:03:40;;;;;;;24.60;23.10;;;23.50;32.50;;;;;;6214662;23;20509;-69
2022/07/24 05:06:06;;;;;;;23.10;21.80;;;23.40;32.50;;;;;;6214798;23;20822;-69
2022/07/24 05:08:35;;;;;;;24.87;23.67;;;23.50;31.90;;;;;;6214824;23;20387;-69
2022/07/24 05:11:00;;;;;;;24.17;22.53;;;23.60;31.60;;;;;;6214488;23;20410;-69
2022/07/24 05:13:26;;;;;;;25.70;24.30;;;23.10;32.50;;;;;;6215976;23;20367;-69
2022/07/24 05:15:52;;;;;;;26.50;25.00;;;22.80;32.30;;;;;;6213945;23;20206;-71
2022/07/24 05:18:19;;;;;;;24.40;23.00;;;22.80;32.90;;;;;;6213756;23;20290;-71
2022/07/24 05:20:44;;;;;;;23.87;22.57;;;23.00;32.50;;;;;;6213571;23;20160;-71
2022/07/24 05:23:10;;;;;;;25.70;24.30;;;23.20;31.70;;;;;;6213633;23;20528;-71
2022/07/24 05:25:35;;;;;;;25.50;24.23;;;23.20;31.30;;;;;;6213841;23;20158;-71
2022/07/24 05:28:01;;;;;;;24.87;23.57;;;23.10;31.70;;;;;;6213723;23;20167;-71
2022/07/24 05:30:27;;;;;;;22.90;21.60;;;23.00;32.20;;;;;;6213702;23;20474;-71
2022/07/24 05:32:53;;;;;;;24.80;22.90;;;22.80;32.30;;;;;;6213475;23;20527;-71
2022/07/24 05:35:19;;;;;;;25.97;24.60;;;22.70;32.50;;;;;;6213580;23;20239;-71
2022/07/24 05:37:44;;;;;;;23.20;21.47;;;22.50;33.70;;;;;;6213655;23;20488;-71
2022/07/24 05:40:11;;;;;;;23.80;22.50;;;22.60;32.80;;;;;;6213465;23;20159;-71
2022/07/24 05:42:36;;;;;;;25.53;24.23;;;22.80;32.70;;;;;;6213330;23;20160;-71
2022/07/24 05:45:03;;;;;;;23.40;22.00;;;23.00;32.00;;;;;;6213475;23;20920;-71
2022/07/24 05:47:35;;;;;;;23.73;22.50;;;22.70;32.20;;;;;;6213367;23;20167;-69
2022/07/24 05:50:01;;;;;;;24.20;22.70;;;22.90;32.30;;;;;;6213314;23;20463;-69
2022/07/24 05:52:27;;;;;;;22.37;21.10;;;23.10;31.70;;;;;;6213507;23;20411;-68
2022/07/24 05:54:53;;;;;;;23.97;22.20;;;22.90;31.50;;;;;;6213248;23;20493;-69
2022/07/24 05:57:18;;;;;;;24.83;23.50;;;22.70;32.30;;;;;;6213523;23;20148;-69
2022/07/24 05:59:44;;;;;;;25.17;23.90;;;22.90;31.70;;;;;;6213254;23;20226;-69
2022/07/24 06:02:10;;;;;;;22.97;21.67;;;23.10;30.80;;;;;;6213127;23;20156;-68
2022/07/24 06:04:41;;;;;;;23.67;21.90;;;23.20;29.90;;;;;;6213510;23;20425;-69
2022/07/24 06:07:09;;;;;;;21.87;20.57;;;23.40;29.90;;;;;;6213415;23;20605;-69
2022/07/24 06:09:35;;;;;;;23.40;22.00;;;23.30;30.50;;;;;;6213184;23;20379;-68
2022/07/24 06:12:02;;;;;;;23.20;22.00;;;23.00;30.70;;;;;;6213415;23;20383;-68
2022/07/24 06:14:28;;;;;;;23.00;21.70;;;23.20;30.60;;;;;;6213058;23;20418;-69
2022/07/24 06:16:54;;;;;;;23.10;21.60;;;23.30;30.00;;;;;;6213275;23;20383;-69
2022/07/24 06:19:22;;;;;;;22.00;20.70;;;23.40;30.00;;;;;;6213176;23;20152;-68
2022/07/24 06:21:50;;;;;;;22.77;21.27;;;23.30;29.90;;;;;;6214688;23;20152;-69
2022/07/24 06:24:24;;;;;;;23.80;22.60;;;23.20;29.80;;;;;;6213228;23;20423;-68
2022/07/24 06:26:53;;;;;;;23.90;22.80;;;23.50;29.10;;;;;;6213458;23;20380;-68
2022/07/24 06:29:19;;;;;;;22.70;21.30;;;23.60;29.00;;;;;;6213064;23;20388;-68
2022/07/24 06:31:44;;;;;;;22.20;21.00;;;23.70;29.30;;;;;;6212867;23;20421;-68
2022/07/24 06:34:11;;;;;;;22.93;21.50;;;23.80;28.00;;;;;;6214601;23;20372;-68
2022/07/24 06:36:39;;;;;;;24.60;23.30;;;23.80;27.80;;;;;;6213495;23;20566;-69
2022/07/24 06:39:04;;;;;;;22.07;20.67;;;23.90;27.40;;;;;;6214471;23;20379;-68
2022/07/24 06:41:36;;;;;;;24.43;23.13;;;23.90;27.20;;;;;;6212754;23;20383;-69
2022/07/24 06:44:02;;;;;;;23.27;21.97;;;23.80;27.30;;;;;;6213015;23;20701;-69
2022/07/24 06:46:34;;;;;;;22.80;21.30;;;24.00;28.10;;;;;;6213112;23;20403;-70
2022/07/24 06:49:00;;;;;;;22.73;21.43;;;24.10;28.00;;;;;;6213120;23;20179;-67
2022/07/24 06:51:32;;;;;;;22.20;20.90;;;24.10;27.40;;;;;;6213218;23;20387;-68
2022/07/24 06:53:57;;;;;;;24.30;22.70;;;24.20;27.60;;;;;;6212823;23;20234;-68
2022/07/24 06:56:23;;;;;;;24.33;23.03;;;24.00;27.50;;;;;;6212906;23;20418;-68
2022/07/24 06:58:49;;;;;;;22.87;21.57;;;24.00;28.00;;;;;;6212840;23;20581;-68
2022/07/24 07:01:15;;;;;;;23.50;22.20;;;24.10;27.30;;;;;;6214082;23;20585;-68
2022/07/24 07:03:42;;;;;;;22.70;21.40;;;24.20;27.30;;;;;;6238432;23;20484;-68
2022/07/24 07:06:08;;;;;;;22.03;20.77;;;24.20;27.20;;;;;;6212759;23;20151;-67
2022/07/24 07:08:36;;;;;;;21.97;20.67;;;24.30;27.50;;;;;;6212786;23;20483;-67
2022/07/24 07:11:11;;;;;;;22.77;21.33;;;24.50;26.60;;;;;;6213940;23;20566;-67
2022/07/24 07:13:37;;;;;;;22.37;20.97;;;24.50;26.70;;;;;;6212519;23;20402;-67
2022/07/24 07:16:03;;;;;;;21.83;20.53;;;24.60;26.60;;;;;;6214937;23;20686;-67
2022/07/24 07:18:38;;;;;;;21.70;20.50;;;24.80;26.30;;;;;;6213458;23;20286;-71
2022/07/24 07:21:11;;;;;;;22.67;21.57;;;24.80;26.40;;;;;;6212712;23;20836;-69
2022/07/24 07:23:37;;;;;;;23.63;22.17;;;24.80;26.40;;;;;;6212463;23;20411;-69
2022/07/24 07:26:09;;;;;;;24.37;23.03;;;24.80;25.80;;;;;;6212022;23;20379;-69
2022/07/24 07:28:35;;;;;;;24.10;22.80;;;24.70;26.20;;;;;;6238475;23;20375;-68
2022/07/24 07:31:10;;;;;;;23.80;22.30;;;24.80;26.90;;;;;;6210118;23;20484;-69
2022/07/24 07:33:38;;;;;;;24.90;23.60;;;24.90;27.50;;;;;;6234742;23;20383;-72
2022/07/24 07:36:04;;;;;;;23.03;21.53;;;25.00;27.50;;;;;;6210548;23;20394;-72
2022/07/24 07:38:30;;;;;;;23.03;21.77;;;25.00;27.50;;;;;;6212053;23;20375;-72
2022/07/24 07:40:56;;;;;;;23.27;21.87;;;25.20;26.30;;;;;;6209649;23;20401;-72
2022/07/24 07:43:22;;;;;;;25.37;23.37;;;25.00;26.60;;;;;;6210723;23;20214;-72
2022/07/24 07:45:47;;;;;;;23.97;22.27;;;25.00;27.00;;;;;;6210495;23;20379;-72
2022/07/24 07:48:13;;;;;;;24.47;23.17;;;25.10;28.00;;;;;;6211087;23;20183;-72
2022/07/24 07:50:39;;;;;;;24.17;22.77;;;25.30;28.10;;;;;;6214139;23;20155;-72
2022/07/24 07:53:14;;;;;;;23.03;21.73;;;25.30;27.30;;;;;;6213160;23;20160;-72
2022/07/24 07:55:40;;;;;;;23.60;21.97;;;25.30;27.20;;;;;;6213141;23;20148;-72
2022/07/24 07:58:06;;;;;;;23.23;22.00;;;25.30;27.60;;;;;;6212682;23;20431;-72
2022/07/24 08:00:36;;;;;;;23.70;22.40;;;25.30;27.80;;;;;;6212532;23;20798;-72
2022/07/24 08:03:02;;;;;;;24.13;22.93;;;25.50;25.50;;;;;;6212946;23;20526;-72
2022/07/24 08:05:31;;;;;;;23.63;22.43;;;25.50;26.70;;;;;;6213027;23;20379;-72
2022/07/24 08:08:00;;;;;;;24.73;23.33;;;25.70;26.30;;;;;;6212943;23;20387;-72
2022/07/24 08:10:26;;;;;;;21.90;20.80;;;25.90;25.50;;;;;;6214059;23;20458;-72
2022/07/24 08:12:52;;;;;;;22.17;20.97;;;25.80;25.50;;;;;;6212667;23;21022;-72
2022/07/24 08:15:18;;;;;;;23.40;22.00;;;25.90;25.50;;;;;;6212887;23;20202;-72
2022/07/24 08:17:44;;;;;;;22.63;21.30;;;25.90;24.60;;;;;;6212571;23;20379;-72
2022/07/24 08:20:10;;;;;;;21.57;20.37;;;26.00;24.20;;;;;;6212358;23;20420;-72
2022/07/24 08:22:37;;;;;;;22.73;21.47;;;25.90;24.10;;;;;;6212352;23;20390;-72
2022/07/24 08:25:03;;;;;;;20.97;19.87;;;26.10;23.60;;;;;;6214151;23;20383;-72
2022/07/24 08:27:29;;;;;;;21.47;20.17;;;26.10;23.50;;;;;;6214613;23;20375;-72
2022/07/24 08:29:54;;;;;;;21.37;20.17;;;26.20;23.60;;;;;;6213905;23;20436;-72
2022/07/24 08:32:21;;;;;;;22.77;20.87;;;26.10;24.00;;;;;;6214364;23;20158;-72
2022/07/24 08:34:49;;;;;;;21.83;20.63;;;26.00;24.10;;;;;;6214547;23;20163;-72
2022/07/24 08:37:18;;;;;;;21.47;20.27;;;26.10;23.60;;;;;;6214336;23;20387;-72
2022/07/24 08:39:50;;;;;;;22.00;20.80;;;26.30;22.70;;;;;;6215492;23;20386;-72
2022/07/24 08:42:16;;;;;;;22.63;21.40;;;26.50;21.80;;;;;;6214327;23;20472;-72
2022/07/24 08:44:42;;;;;;;20.57;19.47;;;26.40;21.80;;;;;;6214102;23;20800;-72
2022/07/24 08:47:20;;;;;;;21.03;19.83;;;26.30;22.30;;;;;;6214417;23;20569;-72
2022/07/24 08:49:52;;;;;;;21.93;20.63;;;26.30;22.30;;;;;;6213855;23;20387;-75
2022/07/24 08:52:20;;;;;;;22.07;20.77;;;26.40;21.80;;;;;;6214611;23;20380;-73
2022/07/24 08:54:46;;;;;;;20.60;19.40;;;26.50;21.70;;;;;;6216312;23;20425;-73
2022/07/24 08:57:11;;;;;;;21.23;19.90;;;26.70;21.10;;;;;;6214706;23;20844;-72
2022/07/24 08:59:37;;;;;;;20.90;19.80;;;26.70;21.00;;;;;;6214626;23;20195;-74
2022/07/24 09:02:03;;;;;;;21.30;20.20;;;26.60;21.60;;;;;;6214252;23;20297;-72
2022/07/24 09:04:42;;;;;;;23.07;21.67;;;26.50;21.60;;;;;;6213767;23;20176;-72
2022/07/24 09:07:18;;;;;;;20.97;19.87;;;26.60;20.90;;;;;;6214287;23;20214;-72
2022/07/24 09:09:57;;;;;;;21.17;19.83;;;26.60;20.70;;;;;;6216057;23;20363;-72
2022/07/24 09:12:23;;;;;;;20.97;19.77;;;26.80;20.10;;;;;;6214263;23;20367;-73
2022/07/24 09:14:49;;;;;;;20.90;19.90;;;26.90;20.70;;;;;;6214158;23;20395;-73
2022/07/24 09:17:17;;;;;;;20.83;19.83;;;26.80;20.60;;;;;;6214266;23;20732;-74
2022/07/24 09:20:13;;;;;;;21.60;20.50;;;26.70;20.70;;;;;;6214453;23;20160;-74
2022/07/24 09:22:45;;;;;;;21.63;20.50;;;26.80;20.30;;;;;;6215885;23;20391;-74
2022/07/24 09:25:27;;;;;;;21.30;20.07;;;27.20;18.90;;;;;;6214771;23;20379;-74
2022/07/24 09:28:07;;;;;;;21.17;19.97;;;27.00;19.70;;;;;;6214581;23;20390;-74
2022/07/24 09:30:43;;;;;;;20.47;19.33;;;26.80;20.00;;;;;;6214367;23;20974;-74
2022/07/24 09:33:42;;;;;;;21.43;20.40;;;26.80;20.00;;;;;;6214342;23;20398;-74
2022/07/24 09:39:21;;;;;;;21.17;19.67;;;27.10;19.80;;;;;;6203662;23;20383;-74
2022/07/24 09:41:52;;;;;;;21.53;20.43;;;27.40;18.10;;;;;;6214012;23;20367;-74
2022/07/24 09:44:29;;;;;;;20.23;19.13;;;27.20;18.20;;;;;;6214081;23;20427;-74
2022/07/24 09:46:56;;;;;;;21.07;19.87;;;27.00;18.90;;;;;;6213484;23;20387;-74
2022/07/24 09:49:23;;;;;;;19.10;18.10;;;26.90;19.40;;;;;;6213165;23;20384;-74
2022/07/24 09:52:16;;;;;;;19.10;17.90;;;26.80;18.90;;;;;;6213584;23;20444;-74
2022/07/24 09:55:03;;;;;;;19.57;18.57;;;26.80;19.30;;;;;;6213995;23;20387;-75
2022/07/24 09:57:33;;;;;;;19.80;18.70;;;27.00;19.10;;;;;;6215363;23;20383;-74
2022/07/24 10:00:02;;;;;;;20.47;19.27;;;26.90;19.20;;;;;;6213307;23;20376;-74
2022/07/24 10:02:31;;;;;;;21.37;20.27;;;26.80;18.80;;;;;;6213771;23;20391;-74
2022/07/24 10:04:59;;;;;;;21.37;20.00;;;26.90;19.60;;;;;;6213501;23;20391;-74
2022/07/24 10:07:26;;;;;;;21.73;20.33;;;26.80;19.90;;;;;;6213916;23;20445;-74
2022/07/24 10:09:56;;;;;;;21.77;20.47;;;26.80;19.90;;;;;;6215404;23;20716;-74
2022/07/24 10:12:24;;;;;;;21.23;20.13;;;27.10;19.70;;;;;;6213713;23;20788;-74
2022/07/24 10:14:54;;;;;;;20.70;19.60;;;27.30;19.20;;;;;;6214175;23;20860;-74
2022/07/24 10:17:40;;;;;;;20.30;18.90;;;27.50;18.50;;;;;;6213848;23;20720;-74
2022/07/24 10:20:08;;;;;;;21.27;20.07;;;27.70;17.80;;;;;;6127653;23;20388;-74
2022/07/24 10:22:50;;;;;;;21.37;20.23;;;27.90;18.00;;;;;;6200073;23;20425;-74
2022/07/24 10:25:23;;;;;;;20.07;18.93;;;28.00;18.00;;;;;;6213866;23;20439;-74
2022/07/24 10:27:52;;;;;;;20.93;19.80;;;28.20;17.30;;;;;;6213654;23;20367;-74
2022/07/24 10:30:18;;;;;;;18.67;17.77;;;28.70;15.50;;;;;;6215308;23;20447;-74
2022/07/24 10:32:46;;;;;;;19.73;18.77;;;28.90;16.20;;;;;;6213787;23;20383;-73
2022/07/24 10:35:25;;;;;;;21.98;20.58;;;29.00;15.40;;;;;;6212689;23;20428;-74
2022/07/24 10:38:22;;;;;;;18.53;17.73;;;29.30;14.80;;;;;;6213935;23;20194;-74
2022/07/24 10:40:58;;;;;;;20.80;19.70;;;29.70;13.90;;;;;;6213631;23;20376;-75
2022/07/24 10:43:24;;;;;;;21.20;19.60;;;29.50;13.70;;;;;;6214582;23;20403;-75
2022/07/24 10:45:55;;;;;;;19.47;18.53;;;29.80;13.40;;;;;;6213702;23;20383;-75
2022/07/24 10:48:21;;;;;;;20.43;19.53;;;29.70;13.40;;;;;;6213367;23;20418;-75
2022/07/24 10:51:32;;;;;;;23.03;21.73;;;29.60;13.90;;;;;;6213231;23;20406;-75
2022/07/24 10:53:58;;;;;;;18.60;17.70;;;29.50;14.10;;;;;;6163916;23;20213;-75
2022/07/24 10:56:24;;;;;;;19.53;18.53;;;29.50;13.60;;;;;;6213539;23;20399;-75
2022/07/24 10:59:10;;;;;;;19.90;18.90;;;29.60;13.80;;;;;;6214772;23;20179;-76
2022/07/24 11:01:47;;;;;;;27.90;26.30;;;29.40;14.00;;;;;;6212815;23;20492;-76
2022/07/24 11:04:22;;;;;;;32.30;30.20;;;29.40;14.70;;;;;;6213558;23;20706;-75
2022/07/24 11:07:12;;;;;;;24.13;22.83;;;29.40;13.80;;;;;;6213970;23;20457;-76
2022/07/24 11:10:07;;;;;;;19.73;18.70;;;29.40;14.30;;;;;;6213412;23;20372;-74
2022/07/24 11:12:33;;;;;;;20.93;19.63;;;29.20;14.20;;;;;;6213617;23;20384;-75
2022/07/24 11:17:48;;;;;;;20.57;19.43;;;29.00;14.40;;;;;;6215176;23;20358;-75
2022/07/24 11:20:16;;;;;;;20.17;19.07;;;28.90;14.60;;;;;;6213498;23;20379;-74
2022/07/24 11:22:47;;;;;;;23.23;21.63;;;28.70;14.80;;;;;;6213218;23;20387;-73
2022/07/24 11:25:24;;;;;;;20.23;19.10;;;28.70;14.90;;;;;;6213837;23;20379;-75
2022/07/24 11:27:58;;;;;;;22.87;21.57;;;28.60;15.30;;;;;;6213253;23;20382;-73
2022/07/24 11:30:29;;;;;;;19.60;18.60;;;28.60;16.10;;;;;;6212805;23;20381;-73
2022/07/24 11:32:56;;;;;;;21.27;20.07;;;28.50;15.40;;;;;;6213289;23;20398;-74
2022/07/24 11:35:33;;;;;;;19.87;18.77;;;29.00;14.10;;;;;;6212853;23;20794;-73
2022/07/24 11:38:00;;;;;;;19.33;18.33;;;28.80;14.70;;;;;;6213046;23;20386;-74
2022/07/24 11:40:26;;;;;;;20.07;19.10;;;28.60;14.80;;;;;;6212817;23;20755;-74
2022/07/24 11:42:57;;;;;;;19.70;18.80;;;28.50;15.10;;;;;;6214999;23;20469;-74
2022/07/24 11:45:24;;;;;;;19.80;18.80;;;28.40;15.30;;;;;;6213194;23;20387;-74
2022/07/24 11:47:50;;;;;;;20.80;19.67;;;28.70;14.50;;;;;;6213453;23;20389;-74
2022/07/24 11:50:20;;;;;;;22.20;20.90;;;28.80;14.90;;;;;;6213798;23;20383;-74
2022/07/24 11:52:46;;;;;;;20.90;19.70;;;28.80;14.50;;;;;;6215318;23;20375;-74
2022/07/24 11:55:14;;;;;;;20.77;19.60;;;28.90;14.50;;;;;;6213865;23;20386;-74
2022/07/24 11:57:49;;;;;;;21.90;20.50;;;29.10;14.20;;;;;;6213695;23;20470;-74
2022/07/24 12:00:19;;;;;;;20.47;19.40;;;29.30;14.00;;;;;;6214508;23;20377;-73
2022/07/24 12:02:47;;;;;;;20.90;19.83;;;29.30;12.90;;;;;;6214833;23;20379;-75
2022/07/24 12:05:25;;;;;;;21.27;20.13;;;29.40;12.80;;;;;;6216377;23;20371;-76
2022/07/24 12:07:59;;;;;;;20.43;19.23;;;29.40;12.70;;;;;;6215134;23;20382;-75
2022/07/24 12:10:26;;;;;;;21.37;19.77;;;29.50;12.50;;;;;;6214108;23;20874;-73
2022/07/24 12:12:54;;;;;;;20.63;19.57;;;29.40;12.80;;;;;;6213089;23;20395;-73
2022/07/24 12:15:21;;;;;;;20.63;19.60;;;29.50;12.50;;;;;;6214218;23;20441;-69
2022/07/24 12:18:00;;;;;;;19.80;18.83;;;29.70;12.20;;;;;;6213837;23;20758;-68
2022/07/24 12:20:33;;;;;;;20.40;19.40;;;29.90;11.40;;;;;;6213709;23;20383;-69
2022/07/24 12:23:01;;;;;;;19.50;18.60;;;29.80;11.90;;;;;;6214235;23;20985;-69
2022/07/24 12:25:30;;;;;;;20.00;18.90;;;29.80;11.60;;;;;;6214913;23;20386;-68
2022/07/24 12:28:05;;;;;;;20.40;19.40;;;29.80;11.10;;;;;;6214554;23;20406;-68
2022/07/24 12:30:34;;;;;;;19.10;18.20;;;29.80;11.20;;;;;;6214500;23;20469;-69
2022/07/24 12:33:04;;;;;;;19.80;18.90;;;29.70;11.10;;;;;;6214519;23;20463;-69
2022/07/24 12:35:33;;;;;;;19.27;18.37;;;29.60;10.80;;;;;;6214745;23;20440;-69
2022/07/24 12:38:05;;;;;;;19.87;18.87;;;29.50;11.00;;;;;;6214490;23;20387;-69
2022/07/24 12:40:40;;;;;;;22.07;20.70;;;29.30;11.30;;;;;;6214293;23;20425;-69